3MA1 weather

Marlborough Hospital Heliport
Marlborough, Massachusetts, United States

Public forecast

Using degrees Fahrenheit for public forecast. Weather courtesy of forecast.io.

Closest aviation weather report (METAR) to Marlborough Hospital Heliport

Closest report is Laurence G Hanscom Field, 13.6 nm (25.2 km) ENE. Retrieved 2020/01/22 00:51 UTC (46 minutes ago):

KBED 220051Z 00000KT 10SM CLR M12/M17 A3042 RMK AO2 SLP320 T11221172

Closest aviation forecast (TAF) to Marlborough Hospital Heliport

Closest forecast is Laurence G Hanscom Field, 13.6 nm (25.2 km) ENE. Retrieved 2020-01-22 00:30 UTC (1 hour ago):

TAF KBED 212329Z 2200/2224 00000KT P6SM SKC FM221500 28004KT P6SM BKN250 FM222200 00000KT P6SM FEW250